Time;durP1;ratioP1;P1;durP2;ratioP2;P2;SDS_P1;SDS_P2;PMS_P1;PMS_P2;Temp;Humidity;BMP_temperature;BMP_pressure;BME280_temperature;BME280_humidity;BME280_pressure;Samples;Min_cycle;Max_cycle;Signal;HPM_P1;HPM_P2
2021/07/04 00:01:04;;;;;;;;;;;20.80;99.90;;;;;;5016537;28;21005;-72
2021/07/04 00:03:31;;;;;;;;;;;20.70;99.90;;;;;;4997683;28;19933;-72
2021/07/04 00:05:58;;;;;;;;;;;20.80;99.90;;;;;;5013729;28;19933;-73
2021/07/04 00:08:25;;;;;;;;;;;20.80;99.90;;;;;;5012669;28;19929;-73
2021/07/04 00:10:58;;;;;;;;;;;20.60;99.90;;;;;;5030729;28;19928;-74
2021/07/04 00:13:26;;;;;;;;;;;20.50;99.90;;;;;;5011403;28;19933;-74
2021/07/04 00:15:55;;;;;;;;;;;20.60;99.90;;;;;;5015745;28;19925;-73
2021/07/04 00:18:24;;;;;;;;;;;20.60;99.90;;;;;;5011965;28;19932;-73
2021/07/04 00:20:52;;;;;;;;;;;20.70;99.90;;;;;;5013479;28;20332;-72
2021/07/04 00:23:20;;;;;;;;;;;20.60;99.90;;;;;;5011789;28;19926;-73
2021/07/04 00:25:47;;;;;;;;;;;20.50;99.90;;;;;;5016115;28;19931;-74
2021/07/04 00:28:14;;;;;;;;;;;20.60;99.90;;;;;;5027152;28;19965;-74
2021/07/04 00:30:41;;;;;;;;;;;20.40;99.90;;;;;;5015354;28;19925;-73
2021/07/04 00:33:08;;;;;;;;;;;20.50;99.90;;;;;;5027430;28;20361;-73
2021/07/04 00:35:35;;;;;;;;;;;20.60;99.90;;;;;;5014766;28;19926;-73
2021/07/04 00:38:04;;;;;;;;;;;20.50;99.90;;;;;;5027819;28;19941;-74
2021/07/04 00:40:30;;;;;;;;;;;20.30;99.90;;;;;;5015909;28;19937;-74
2021/07/04 00:42:57;;;;;;;;;;;20.20;99.90;;;;;;5027885;28;19929;-74
2021/07/04 00:45:25;;;;;;;;;;;20.20;99.90;;;;;;5023064;28;20343;-73
2021/07/04 00:47:53;;;;;;;;;;;20.30;99.90;;;;;;5025275;28;19933;-73
2021/07/04 00:50:21;;;;;;;;;;;20.40;99.90;;;;;;5026936;28;19971;-73
2021/07/04 00:52:48;;;;;;;;;;;20.40;99.90;;;;;;5028026;28;19925;-73
2021/07/04 00:55:16;;;;;;;;;;;20.40;99.90;;;;;;5030039;28;19963;-74
2021/07/04 00:57:43;;;;;;;;;;;20.30;99.90;;;;;;5047024;28;19948;-83
2021/07/04 01:00:11;;;;;;;;;;;20.30;99.90;;;;;;5026534;28;19932;-81
2021/07/04 01:02:39;;;;;;;;;;;20.30;99.90;;;;;;5046639;28;20312;-83
2021/07/04 01:05:09;;;;;;;;;;;20.30;99.90;;;;;;5033379;28;20612;-84
2021/07/04 01:07:36;;;;;;;;;;;20.20;99.90;;;;;;5034761;28;19925;-82
2021/07/04 01:10:04;;;;;;;;;;;20.20;99.90;;;;;;5031664;28;19936;-86
2021/07/04 01:12:31;;;;;;;;;;;20.20;99.90;;;;;;5031481;28;19933;-81
2021/07/04 01:14:58;;;;;;;;;;;20.10;99.90;;;;;;5028599;28;20333;-86
2021/07/04 01:17:25;;;;;;;;;;;20.10;99.90;;;;;;5032082;28;19925;-86
2021/07/04 01:19:52;;;;;;;;;;;20.20;99.90;;;;;;5051005;28;20360;-86
2021/07/04 01:22:19;;;;;;;;;;;20.20;99.90;;;;;;5033241;28;19971;-86
2021/07/04 01:24:46;;;;;;;;;;;20.10;99.90;;;;;;5032908;28;19929;-87
2021/07/04 01:27:13;;;;;;;;;;;20.20;99.90;;;;;;5033646;28;19925;-84
2021/07/04 01:29:41;;;;;;;;;;;20.20;99.90;;;;;;5029285;28;19936;-84
2021/07/04 01:32:08;;;;;;;;;;;20.00;99.90;;;;;;5049457;28;20308;-85
2021/07/04 01:34:35;;;;;;;;;;;20.00;99.90;;;;;;5042391;28;19929;-86
2021/07/04 01:37:01;;;;;;;;;;;20.00;99.90;;;;;;5034415;28;19936;-81
2021/07/04 01:39:28;;;;;;;;;;;20.00;99.90;;;;;;5033417;28;19925;-84
2021/07/04 01:41:56;;;;;;;;;;;19.90;99.90;;;;;;5026769;28;19925;-86
2021/07/04 01:44:23;;;;;;;;;;;20.00;99.90;;;;;;5031260;28;19934;-83
2021/07/04 01:46:51;;;;;;;;;;;20.00;99.90;;;;;;5032151;28;20315;-83
2021/07/04 01:49:18;;;;;;;;;;;20.00;99.90;;;;;;5031840;28;20327;-85
2021/07/04 01:51:45;;;;;;;;;;;20.00;99.90;;;;;;5034906;28;19925;-84
2021/07/04 01:54:11;;;;;;;;;;;20.10;99.90;;;;;;5033865;28;19929;-83
2021/07/04 01:56:38;;;;;;;;;;;20.00;99.90;;;;;;5040428;28;19925;-84
2021/07/04 01:59:05;;;;;;;;;;;19.90;99.90;;;;;;5032036;28;19925;-82
2021/07/04 02:01:32;;;;;;;;;;;19.90;99.90;;;;;;5030762;28;19929;-81
2021/07/04 02:03:59;;;;;;;;;;;19.80;99.90;;;;;;5027894;28;19925;-82
2021/07/04 02:06:25;;;;;;;;;;;19.80;99.90;;;;;;5028259;28;20332;-82
2021/07/04 02:08:52;;;;;;;;;;;19.80;99.90;;;;;;5027137;28;19940;-82
2021/07/04 02:11:20;;;;;;;;;;;19.90;99.90;;;;;;5031191;28;20319;-83
2021/07/04 02:13:47;;;;;;;;;;;19.90;99.90;;;;;;5029411;28;20352;-83
2021/07/04 02:16:13;;;;;;;;;;;20.00;99.90;;;;;;5031184;28;20028;-84
2021/07/04 02:18:41;;;;;;;;;;;19.90;99.90;;;;;;5023797;28;19982;-83
2021/07/04 02:21:08;;;;;;;;;;;19.80;99.90;;;;;;5031319;28;19963;-84
2021/07/04 02:23:36;;;;;;;;;;;19.70;99.90;;;;;;5031634;28;19914;-83
2021/07/04 02:26:03;;;;;;;;;;;19.80;99.90;;;;;;5030006;28;19926;-81
2021/07/04 02:28:30;;;;;;;;;;;19.80;99.90;;;;;;5025495;28;20379;-83
2021/07/04 02:30:57;;;;;;;;;;;19.90;99.90;;;;;;5028728;28;19971;-82
2021/07/04 02:33:25;;;;;;;;;;;19.80;99.90;;;;;;5028964;28;19929;-80
2021/07/04 02:35:56;;;;;;;;;;;19.70;99.90;;;;;;5030164;28;19929;-82
2021/07/04 02:38:24;;;;;;;;;;;19.80;99.90;;;;;;5029843;28;19929;-84
2021/07/04 02:40:52;;;;;;;;;;;19.90;99.90;;;;;;5032786;28;19956;-73
2021/07/04 02:43:21;;;;;;;;;;;19.70;99.90;;;;;;5029854;28;19925;-73
2021/07/04 02:45:48;;;;;;;;;;;19.80;99.90;;;;;;5027413;28;19933;-73
2021/07/04 02:48:15;;;;;;;;;;;19.70;99.90;;;;;;5026442;28;19929;-73
2021/07/04 02:50:43;;;;;;;;;;;19.70;99.90;;;;;;5027188;28;20423;-73
2021/07/04 02:53:10;;;;;;;;;;;19.70;99.90;;;;;;5022930;28;19929;-73
2021/07/04 02:55:37;;;;;;;;;;;19.80;99.90;;;;;;5031629;28;20382;-74
2021/07/04 02:58:05;;;;;;;;;;;19.70;99.90;;;;;;5031152;28;19940;-73
2021/07/04 03:00:32;;;;;;;;;;;19.80;99.90;;;;;;5034165;28;20350;-73
2021/07/04 03:02:59;;;;;;;;;;;19.80;99.90;;;;;;5028962;28;19942;-73
2021/07/04 03:05:25;;;;;;;;;;;19.70;99.90;;;;;;5033129;28;19929;-73
2021/07/04 03:07:52;;;;;;;;;;;19.80;99.90;;;;;;5032076;28;19932;-73
2021/07/04 03:10:20;;;;;;;;;;;19.80;99.90;;;;;;5030856;28;19963;-74
2021/07/04 03:12:47;;;;;;;;;;;19.90;99.90;;;;;;5034741;28;20410;-84
2021/07/04 03:15:15;;;;;;;;;;;19.90;99.90;;;;;;5046353;28;19964;-80
2021/07/04 03:17:42;;;;;;;;;;;19.80;99.90;;;;;;5034574;28;19933;-79
2021/07/04 03:20:09;;;;;;;;;;;19.80;99.90;;;;;;5035570;28;19929;-85
2021/07/04 03:22:36;;;;;;;;;;;19.80;99.90;;;;;;5035164;28;19932;-82
2021/07/04 03:25:05;;;;;;;;;;;19.80;99.90;;;;;;5035339;28;19929;-73
2021/07/04 03:27:32;;;;;;;;;;;19.80;99.90;;;;;;5032871;28;19932;-73
2021/07/04 03:29:58;;;;;;;;;;;19.80;99.90;;;;;;5030534;28;20383;-73
2021/07/04 03:32:25;;;;;;;;;;;19.80;99.90;;;;;;5029325;28;19965;-74
2021/07/04 03:34:52;;;;;;;;;;;19.70;99.90;;;;;;5031397;28;19925;-73
2021/07/04 03:37:19;;;;;;;;;;;19.70;99.90;;;;;;5045487;28;19925;-73
2021/07/04 03:39:46;;;;;;;;;;;19.70;99.90;;;;;;5047996;28;19933;-73
2021/07/04 03:42:13;;;;;;;;;;;19.60;99.90;;;;;;5030029;28;20311;-74
2021/07/04 03:44:40;;;;;;;;;;;19.70;99.90;;;;;;5028070;28;20430;-73
2021/07/04 03:47:07;;;;;;;;;;;19.70;99.90;;;;;;5032564;28;19932;-74
2021/07/04 03:49:34;;;;;;;;;;;19.70;99.90;;;;;;5028342;28;19935;-73
2021/07/04 03:52:01;;;;;;;;;;;19.50;99.90;;;;;;5028983;28;20268;-73
2021/07/04 03:54:27;;;;;;;;;;;19.60;99.90;;;;;;5030209;28;20396;-73
2021/07/04 03:56:54;;;;;;;;;;;19.70;99.90;;;;;;5029802;28;19936;-73
2021/07/04 03:59:21;;;;;;;;;;;19.70;99.90;;;;;;5029847;28;19991;-74
2021/07/04 04:01:48;;;;;;;;;;;19.60;99.90;;;;;;5031840;28;19932;-74
2021/07/04 04:04:15;;;;;;;;;;;19.70;99.90;;;;;;5029777;28;19925;-73
2021/07/04 04:06:42;;;;;;;;;;;19.70;99.90;;;;;;5028614;28;19925;-73
2021/07/04 04:09:09;;;;;;;;;;;19.60;99.90;;;;;;5030394;28;19925;-73
2021/07/04 04:11:35;;;;;;;;;;;19.70;99.90;;;;;;5031929;28;20307;-73
2021/07/04 04:14:02;;;;;;;;;;;19.80;99.90;;;;;;5045878;28;20384;-75
2021/07/04 04:16:29;;;;;;;;;;;19.80;99.90;;;;;;5043651;28;19933;-73
2021/07/04 04:18:56;;;;;;;;;;;19.80;99.90;;;;;;5026481;28;19925;-73
2021/07/04 04:21:23;;;;;;;;;;;19.80;99.90;;;;;;5030858;28;19929;-73
2021/07/04 04:23:50;;;;;;;;;;;20.00;99.90;;;;;;5030439;28;20395;-73
2021/07/04 04:26:17;;;;;;;;;;;20.00;99.90;;;;;;5031377;28;19929;-73
2021/07/04 04:28:44;;;;;;;;;;;19.90;99.90;;;;;;5028065;28;19940;-73
2021/07/04 04:31:10;;;;;;;;;;;19.90;99.90;;;;;;5030982;28;19929;-73
2021/07/04 04:33:37;;;;;;;;;;;19.80;99.90;;;;;;5027427;28;20319;-73
2021/07/04 04:36:04;;;;;;;;;;;19.90;99.90;;;;;;5043930;28;20390;-74
2021/07/04 04:38:31;;;;;;;;;;;19.90;99.90;;;;;;5021241;28;19925;-73
2021/07/04 04:40:58;;;;;;;;;;;20.00;99.90;;;;;;5030258;28;20944;-73
2021/07/04 04:43:25;;;;;;;;;;;20.00;99.90;;;;;;5028175;28;19956;-73
2021/07/04 04:45:51;;;;;;;;;;;19.90;99.90;;;;;;5031866;28;19925;-73
2021/07/04 04:48:18;;;;;;;;;;;19.70;99.90;;;;;;5028510;28;19931;-73
2021/07/04 04:50:45;;;;;;;;;;;19.70;99.90;;;;;;5030588;28;19925;-73
2021/07/04 04:53:12;;;;;;;;;;;19.70;99.90;;;;;;5029192;28;20269;-73
2021/07/04 04:55:39;;;;;;;;;;;19.60;99.90;;;;;;5028359;28;20352;-72
2021/07/04 04:58:06;;;;;;;;;;;19.70;99.90;;;;;;5029060;28;19925;-72
2021/07/04 05:00:33;;;;;;;;;;;19.80;99.90;;;;;;5025453;28;19925;-73
2021/07/04 05:03:05;;;;;;;;;;;19.80;99.90;;;;;;5030880;28;19971;-73
2021/07/04 05:05:33;;;;;;;;;;;19.80;99.90;;;;;;5028901;28;19929;-73
2021/07/04 05:08:00;;;;;;;;;;;19.80;99.90;;;;;;5029616;28;19975;-84
2021/07/04 05:10:28;;;;;;;;;;;19.80;99.90;;;;;;5048584;28;19933;-85
2021/07/04 05:12:54;;;;;;;;;;;19.80;99.90;;;;;;5035698;28;19948;-81
2021/07/04 05:15:22;;;;;;;;;;;19.80;99.90;;;;;;5032296;28;20019;-83
2021/07/04 05:17:49;;;;;;;;;;;19.80;99.90;;;;;;5031905;28;19925;-85
2021/07/04 05:20:16;;;;;;;;;;;19.70;99.90;;;;;;5032546;28;20321;-83
2021/07/04 05:22:43;;;;;;;;;;;19.80;99.90;;;;;;5032043;28;19979;-82
2021/07/04 05:25:11;;;;;;;;;;;19.90;99.90;;;;;;5030707;28;19932;-83
2021/07/04 05:27:37;;;;;;;;;;;20.50;99.90;;;;;;5032751;28;19947;-83
2021/07/04 05:30:05;;;;;;;;;;;22.30;99.90;;;;;;5028095;28;19995;-84
2021/07/04 05:32:32;;;;;;;;;;;23.20;99.90;;;;;;5027781;28;20002;-84
2021/07/04 05:34:59;;;;;;;;;;;24.10;99.90;;;;;;5031722;28;19933;-83
2021/07/04 05:37:26;;;;;;;;;;;24.70;99.90;;;;;;5032214;28;19932;-83
2021/07/04 05:39:54;;;;;;;;;;;23.40;99.90;;;;;;5029782;28;19909;-80
2021/07/04 05:42:21;;;;;;;;;;;23.00;99.90;;;;;;5030848;28;19925;-81
2021/07/04 05:44:48;;;;;;;;;;;22.40;99.90;;;;;;5029226;28;20392;-83
2021/07/04 05:47:15;;;;;;;;;;;21.70;99.90;;;;;;5032082;28;19932;-84
2021/07/04 05:49:42;;;;;;;;;;;21.50;99.90;;;;;;5031095;28;19929;-85
2021/07/04 05:52:09;;;;;;;;;;;21.20;99.90;;;;;;5030768;28;19998;-84
2021/07/04 05:54:36;;;;;;;;;;;21.30;99.90;;;;;;5041557;28;19925;-83
2021/07/04 05:57:06;;;;;;;;;;;21.40;99.90;;;;;;5029667;28;19929;-80
2021/07/04 05:59:33;;;;;;;;;;;21.30;99.90;;;;;;5028702;28;19933;-81
2021/07/04 06:02:01;;;;;;;;;;;21.30;99.90;;;;;;5033094;28;19925;-83
2021/07/04 06:04:28;;;;;;;;;;;21.20;99.90;;;;;;5030579;28;19925;-82
2021/07/04 06:06:55;;;;;;;;;;;21.00;99.90;;;;;;5030295;28;20432;-82
2021/07/04 06:09:22;;;;;;;;;;;20.90;99.90;;;;;;5029937;28;19925;-82
2021/07/04 06:11:49;;;;;;;;;;;21.00;99.90;;;;;;5031035;28;20331;-84
2021/07/04 06:14:16;;;;;;;;;;;21.00;99.90;;;;;;5027032;28;20371;-79
2021/07/04 06:16:43;;;;;;;;;;;21.10;99.90;;;;;;5033507;28;19925;-84
2021/07/04 06:19:10;;;;;;;;;;;21.20;99.90;;;;;;5033220;28;19925;-84
2021/07/04 06:21:37;;;;;;;;;;;21.20;99.90;;;;;;5032057;28;19945;-82
2021/07/04 06:24:04;;;;;;;;;;;21.20;99.90;;;;;;5032122;28;20385;-82
2021/07/04 06:26:31;;;;;;;;;;;21.10;99.90;;;;;;5027494;28;19925;-83
2021/07/04 06:28:58;;;;;;;;;;;21.10;99.90;;;;;;5027419;28;19940;-83
2021/07/04 06:31:25;;;;;;;;;;;21.20;99.90;;;;;;5023823;28;19930;-83
2021/07/04 06:33:56;;;;;;;;;;;21.30;99.90;;;;;;5032710;28;20013;-82
2021/07/04 06:36:27;;;;;;;;;;;21.60;99.90;;;;;;5028996;28;19936;-82
2021/07/04 06:38:54;;;;;;;;;;;21.70;99.90;;;;;;5033117;28;19940;-80
2021/07/04 06:41:21;;;;;;;;;;;21.90;99.90;;;;;;5028932;28;19963;-82
2021/07/04 06:43:48;;;;;;;;;;;22.40;99.90;;;;;;5035781;28;19929;-84
2021/07/04 06:46:15;;;;;;;;;;;24.00;99.90;;;;;;5035334;28;19925;-82
2021/07/04 06:48:42;;;;;;;;;;;23.90;99.90;;;;;;5033322;28;19933;-82
2021/07/04 06:51:09;;;;;;;;;;;23.60;99.90;;;;;;5031113;28;22117;-80
2021/07/04 06:53:36;;;;;;;;;;;23.60;99.90;;;;;;5034594;28;19933;-84
2021/07/04 06:56:03;;;;;;;;;;;23.80;99.90;;;;;;5033154;28;20028;-83
2021/07/04 06:58:29;;;;;;;;;;;23.40;99.90;;;;;;5035143;28;19925;-85
2021/07/04 07:00:56;;;;;;;;;;;22.70;99.90;;;;;;5035614;28;20564;-85
2021/07/04 07:03:23;;;;;;;;;;;22.40;99.90;;;;;;5030801;28;19943;-85
2021/07/04 07:05:50;;;;;;;;;;;22.30;99.90;;;;;;5030056;28;20055;-84
2021/07/04 07:08:17;;;;;;;;;;;22.10;99.90;;;;;;5030000;28;19929;-83
2021/07/04 07:10:44;;;;;;;;;;;22.10;99.90;;;;;;5036200;28;19932;-82
2021/07/04 07:13:11;;;;;;;;;;;22.00;99.90;;;;;;5036230;28;19960;-83
2021/07/04 07:15:38;;;;;;;;;;;22.10;99.90;;;;;;5035731;28;20338;-81
2021/07/04 07:18:04;;;;;;;;;;;22.00;99.90;;;;;;5034168;28;19964;-80
2021/07/04 07:20:31;;;;;;;;;;;22.10;99.90;;;;;;5033973;28;19951;-84
2021/07/04 07:22:58;;;;;;;;;;;22.70;99.90;;;;;;5032058;28;19932;-85
2021/07/04 07:25:25;;;;;;;;;;;22.50;99.90;;;;;;5033074;28;19933;-76
2021/07/04 07:27:52;;;;;;;;;;;22.00;99.90;;;;;;5030933;28;19971;-73
2021/07/04 07:30:20;;;;;;;;;;;22.30;99.90;;;;;;5044161;28;19932;-73
2021/07/04 07:32:47;;;;;;;;;;;22.40;99.90;;;;;;5032990;28;19936;-73
2021/07/04 07:35:13;;;;;;;;;;;22.30;99.90;;;;;;5032129;28;19967;-73
2021/07/04 07:37:41;;;;;;;;;;;22.40;99.90;;;;;;5030284;28;20012;-74
2021/07/04 07:40:08;;;;;;;;;;;22.30;99.90;;;;;;5029809;28;19931;-74
2021/07/04 07:42:35;;;;;;;;;;;22.40;99.90;;;;;;5031361;28;19932;-73
2021/07/04 07:45:04;;;;;;;;;;;22.30;99.90;;;;;;5031928;28;19932;-84
2021/07/04 07:47:30;;;;;;;;;;;22.40;99.90;;;;;;5034946;28;19936;-80
2021/07/04 07:50:00;;;;;;;;;;;22.50;99.90;;;;;;5048608;28;20008;-84
2021/07/04 07:52:28;;;;;;;;;;;22.50;99.90;;;;;;5036256;28;19929;-83
2021/07/04 07:54:55;;;;;;;;;;;22.60;99.90;;;;;;5034156;28;21591;-82
2021/07/04 07:57:22;;;;;;;;;;;22.80;99.90;;;;;;5028855;28;19929;-79
2021/07/04 07:59:49;;;;;;;;;;;22.70;99.90;;;;;;5030750;28;20578;-82
2021/07/04 08:02:16;;;;;;;;;;;22.80;99.90;;;;;;5032986;28;19929;-84
2021/07/04 08:04:43;;;;;;;;;;;22.90;99.90;;;;;;5046779;28;19925;-83
2021/07/04 08:07:10;;;;;;;;;;;23.20;99.90;;;;;;5033838;28;19925;-84
2021/07/04 08:09:37;;;;;;;;;;;23.40;99.90;;;;;;5027717;28;19925;-83
2021/07/04 08:12:04;;;;;;;;;;;23.40;99.90;;;;;;5025858;28;19931;-80
2021/07/04 08:14:31;;;;;;;;;;;23.20;99.90;;;;;;5031938;28;19987;-85
2021/07/04 08:16:58;;;;;;;;;;;22.80;99.90;;;;;;5033159;28;19925;-82
2021/07/04 08:19:26;;;;;;;;;;;22.70;99.90;;;;;;5024137;28;19987;-83
2021/07/04 08:21:53;;;;;;;;;;;22.70;99.90;;;;;;5029415;28;19932;-84
2021/07/04 08:24:19;;;;;;;;;;;22.90;99.90;;;;;;5033019;28;19932;-82
2021/07/04 08:26:46;;;;;;;;;;;23.00;99.90;;;;;;5046977;28;19961;-83
2021/07/04 08:29:15;;;;;;;;;;;23.30;99.90;;;;;;5031794;28;19925;-80
2021/07/04 08:31:42;;;;;;;;;;;23.50;99.90;;;;;;5029603;28;19999;-82
2021/07/04 08:34:09;;;;;;;;;;;23.60;99.90;;;;;;5031168;28;19925;-84
2021/07/04 08:36:36;;;;;;;;;;;23.50;99.90;;;;;;5033701;28;19929;-85
2021/07/04 08:39:04;;;;;;;;;;;23.50;99.90;;;;;;5031415;28;20028;-85
2021/07/04 08:41:33;;;;;;;;;;;23.30;99.90;;;;;;5044416;28;19926;-84
2021/07/04 08:44:05;;;;;;;;;;;23.20;99.90;;;;;;5035583;28;19932;-85
2021/07/04 08:46:37;;;;;;;;;;;23.20;99.90;;;;;;5028428;28;19971;-87
2021/07/04 08:49:04;;;;;;;;;;;23.30;99.90;;;;;;5023717;28;20273;-74
2021/07/04 08:51:31;;;;;;;;;;;23.10;99.90;;;;;;5029847;28;19933;-78
2021/07/04 08:53:58;;;;;;;;;;;23.00;99.90;;;;;;5030502;28;19925;-77
2021/07/04 08:56:24;;;;;;;;;;;23.20;99.90;;;;;;5031568;28;20325;-77
2021/07/04 08:58:52;;;;;;;;;;;23.30;99.90;;;;;;5027813;28;19936;-78
2021/07/04 09:01:28;;;;;;;;;;;23.30;99.90;;;;;;5029761;28;19936;-79
2021/07/04 09:04:09;;;;;;;;;;;23.30;99.90;;;;;;5028398;28;19932;-79
2021/07/04 09:06:37;;;;;;;;;;;23.40;99.90;;;;;;5030266;28;19925;-78
2021/07/04 09:09:18;;;;;;;;;;;23.30;99.90;;;;;;5038680;28;19986;-77
2021/07/04 09:12:02;;;;;;;;;;;23.30;99.90;;;;;;5047199;28;19925;-78
2021/07/04 09:14:31;;;;;;;;;;;23.30;99.90;;;;;;5039709;28;19929;-78
2021/07/04 09:17:01;;;;;;;;;;;23.00;99.90;;;;;;5030589;28;19925;-77
2021/07/04 09:19:28;;;;;;;;;;;23.00;99.90;;;;;;5026731;28;19936;-75
2021/07/04 09:21:55;;;;;;;;;;;23.00;99.90;;;;;;5029598;28;19932;-73
2021/07/04 09:24:24;;;;;;;;;;;22.90;99.90;;;;;;5030711;28;20441;-74
2021/07/04 09:26:51;;;;;;;;;;;22.90;99.90;;;;;;5030035;28;19932;-73
2021/07/04 09:29:38;;;;;;;;;;;23.10;99.90;;;;;;5028035;28;19983;-73
2021/07/04 09:32:15;;;;;;;;;;;23.30;99.90;;;;;;5028972;28;20319;-77
2021/07/04 09:34:54;;;;;;;;;;;23.30;99.90;;;;;;5044550;28;20356;-76
2021/07/04 09:37:31;;;;;;;;;;;23.50;99.90;;;;;;5026261;28;19925;-75
2021/07/04 09:40:08;;;;;;;;;;;23.50;99.90;;;;;;5028123;28;19933;-77
2021/07/04 09:42:51;;;;;;;;;;;23.50;99.90;;;;;;5026384;28;19944;-77
2021/07/04 09:45:19;;;;;;;;;;;23.30;99.90;;;;;;5020725;28;19948;-76
2021/07/04 09:47:57;;;;;;;;;;;23.30;99.90;;;;;;5043394;28;19932;-76
2021/07/04 09:50:24;;;;;;;;;;;23.40;99.90;;;;;;5027578;28;19967;-76
2021/07/04 09:53:01;;;;;;;;;;;23.50;99.90;;;;;;5029249;28;20028;-76
2021/07/04 09:55:29;;;;;;;;;;;23.60;99.90;;;;;;5027461;28;19933;-76
2021/07/04 09:57:59;;;;;;;;;;;23.80;99.90;;;;;;5025886;28;19933;-77
2021/07/04 10:00:34;;;;;;;;;;;24.00;99.90;;;;;;5028996;28;22071;-78
2021/07/04 10:03:10;;;;;;;;;;;24.20;99.90;;;;;;5043734;28;19925;-80
2021/07/04 10:05:55;;;;;;;;;;;23.70;99.90;;;;;;5034033;28;19968;-81
2021/07/04 10:08:22;;;;;;;;;;;24.00;99.90;;;;;;5032582;28;19948;-79
2021/07/04 10:10:50;;;;;;;;;;;23.90;99.90;;;;;;5031831;28;19925;-79
2021/07/04 10:13:17;;;;;;;;;;;24.20;99.90;;;;;;5031252;28;19925;-80
2021/07/04 10:15:44;;;;;;;;;;;24.30;99.10;;;;;;5032225;28;19948;-79
2021/07/04 10:18:12;;;;;;;;;;;24.40;98.50;;;;;;5032641;28;19925;-78
2021/07/04 10:20:40;;;;;;;;;;;24.30;97.50;;;;;;5034524;28;19932;-79
2021/07/04 10:23:11;;;;;;;;;;;24.00;98.30;;;;;;5035294;28;19929;-79
2021/07/04 10:25:39;;;;;;;;;;;24.10;98.30;;;;;;5035219;28;19937;-78
2021/07/04 10:28:06;;;;;;;;;;;24.40;97.90;;;;;;5034814;28;21105;-79
2021/07/04 10:30:32;;;;;;;;;;;24.60;97.60;;;;;;5036648;28;19925;-79
2021/07/04 10:33:07;;;;;;;;;;;24.50;97.60;;;;;;5034909;28;19925;-79
2021/07/04 10:35:49;;;;;;;;;;;24.50;97.00;;;;;;5033985;28;19925;-79
2021/07/04 10:38:16;;;;;;;;;;;24.60;96.80;;;;;;5033967;28;20372;-79
2021/07/04 10:40:43;;;;;;;;;;;24.50;97.80;;;;;;5034774;28;19929;-79
2021/07/04 10:43:29;;;;;;;;;;;24.30;98.90;;;;;;5033105;28;19930;-79
2021/07/04 10:45:56;;;;;;;;;;;24.50;99.20;;;;;;5049469;28;19933;-80
2021/07/04 10:48:28;;;;;;;;;;;24.90;98.40;;;;;;5032283;28;20273;-79
2021/07/04 10:51:13;;;;;;;;;;;24.70;97.80;;;;;;5034296;28;19971;-78
2021/07/04 10:53:53;;;;;;;;;;;24.60;96.60;;;;;;5033307;28;19929;-78
2021/07/04 10:56:32;;;;;;;;;;;24.70;95.70;;;;;;5035016;28;19932;-79
2021/07/04 10:59:04;;;;;;;;;;;24.90;95.20;;;;;;5036791;28;19928;-79
2021/07/04 11:01:49;;;;;;;;;;;24.80;95.70;;;;;;5035490;28;19933;-79
2021/07/04 11:04:31;;;;;;;;;;;24.90;95.60;;;;;;5033460;28;19932;-80
2021/07/04 11:06:59;;;;;;;;;;;24.70;95.00;;;;;;5049857;28;19971;-79
2021/07/04 11:09:45;;;;;;;;;;;24.80;94.90;;;;;;5032392;28;19925;-78
2021/07/04 11:12:32;;;;;;;;;;;24.70;94.50;;;;;;5035256;28;19925;-78
2021/07/04 11:15:10;;;;;;;;;;;24.10;96.10;;;;;;5028495;28;19936;-78
2021/07/04 11:17:59;;;;;;;;;;;24.30;96.00;;;;;;5024169;28;19925;-79
2021/07/04 11:20:52;;;;;;;;;;;24.00;95.80;;;;;;5034724;28;19925;-78
2021/07/04 11:23:19;;;;;;;;;;;24.10;96.20;;;;;;5032628;28;19933;-79
2021/07/04 11:25:53;;;;;;;;;;;24.00;96.40;;;;;;5031052;28;20315;-78
2021/07/04 11:28:21;;;;;;;;;;;23.80;97.40;;;;;;5022961;28;19976;-71
2021/07/04 11:30:48;;;;;;;;;;;23.40;99.90;;;;;;5030998;28;19929;-71
2021/07/04 11:33:40;;;;;;;;;;;21.00;99.90;;;;;;5045429;28;19925;-72
2021/07/04 11:36:09;;;;;;;;;;;20.70;99.90;;;;;;5028690;28;19987;-71
2021/07/04 11:38:36;;;;;;;;;;;21.20;99.90;;;;;;5026325;28;19925;-72
2021/07/04 11:41:05;;;;;;;;;;;21.60;99.90;;;;;;5039422;28;19932;-71
2021/07/04 11:43:33;;;;;;;;;;;21.70;99.90;;;;;;5030168;28;19936;-71
2021/07/04 11:46:01;;;;;;;;;;;22.00;99.90;;;;;;5027917;28;19925;-71
2021/07/04 11:48:47;;;;;;;;;;;22.10;99.90;;;;;;5031024;28;19995;-79
2021/07/04 11:51:34;;;;;;;;;;;22.20;99.90;;;;;;5029946;28;19980;-79
2021/07/04 11:54:05;;;;;;;;;;;22.30;99.90;;;;;;5033373;28;20016;-80
2021/07/04 11:56:33;;;;;;;;;;;22.60;99.90;;;;;;5032371;28;19933;-80
2021/07/04 11:59:06;;;;;;;;;;;22.50;99.90;;;;;;5034248;28;19933;-80
2021/07/04 12:01:59;;;;;;;;;;;22.40;99.90;;;;;;5047327;28;20528;-77
2021/07/04 12:04:29;;;;;;;;;;;22.40;99.90;;;;;;5029540;28;19925;-81
2021/07/04 12:06:57;;;;;;;;;;;22.50;99.90;;;;;;5030180;28;19971;-82
2021/07/04 12:09:36;;;;;;;;;;;22.50;99.90;;;;;;5047819;28;19925;-79
2021/07/04 12:12:03;;;;;;;;;;;22.60;99.90;;;;;;5028252;28;19925;-81
2021/07/04 12:14:34;;;;;;;;;;;22.80;99.90;;;;;;5031790;28;19929;-79
2021/07/04 12:17:13;;;;;;;;;;;22.80;99.90;;;;;;5031306;28;19925;-79
2021/07/04 12:19:41;;;;;;;;;;;22.70;99.90;;;;;;5024456;28;19933;-79
2021/07/04 12:22:10;;;;;;;;;;;22.30;99.90;;;;;;5031567;28;19974;-80
2021/07/04 12:24:38;;;;;;;;;;;22.40;99.90;;;;;;5033868;28;20343;-80
2021/07/04 12:27:05;;;;;;;;;;;22.30;99.90;;;;;;5033551;28;19932;-80
2021/07/04 12:29:53;;;;;;;;;;;22.40;99.90;;;;;;5023120;28;19940;-81
2021/07/04 12:32:19;;;;;;;;;;;22.30;99.90;;;;;;4996775;28;20364;-82
2021/07/04 12:34:46;;;;;;;;;;;22.20;99.90;;;;;;5031706;28;19929;-79
2021/07/04 12:37:13;;;;;;;;;;;21.90;99.90;;;;;;5032729;28;19929;-79
2021/07/04 12:39:46;;;;;;;;;;;21.40;99.90;;;;;;5032900;28;19928;-79
2021/07/04 12:42:23;;;;;;;;;;;20.90;99.90;;;;;;5030465;28;19925;-80
2021/07/04 12:45:00;;;;;;;;;;;19.20;99.90;;;;;;5022303;28;19987;-79
2021/07/04 12:47:26;;;;;;;;;;;18.80;99.90;;;;;;5030649;28;19980;-79
2021/07/04 12:50:08;;;;;;;;;;;18.50;99.90;;;;;;5030198;28;20311;-79
2021/07/04 12:52:35;;;;;;;;;;;18.60;99.90;;;;;;5030851;28;20297;-79
2021/07/04 12:55:03;;;;;;;;;;;18.60;99.90;;;;;;5030326;28;19933;-79
2021/07/04 12:57:31;;;;;;;;;;;18.60;99.90;;;;;;5029900;28;19928;-80
2021/07/04 13:00:08;;;;;;;;;;;18.80;99.90;;;;;;5038199;28;19925;-80
2021/07/04 13:02:45;;;;;;;;;;;18.70;99.90;;;;;;5029858;28;19960;-78
2021/07/04 13:05:13;;;;;;;;;;;18.60;99.90;;;;;;5029722;28;19929;-79
2021/07/04 13:07:44;;;;;;;;;;;18.50;99.90;;;;;;5030062;28;20008;-79
2021/07/04 13:10:12;;;;;;;;;;;18.50;99.90;;;;;;5029876;28;19925;-80
2021/07/04 13:12:41;;;;;;;;;;;18.50;99.90;;;;;;5030482;28;19933;-79
2021/07/04 13:15:09;;;;;;;;;;;18.40;99.90;;;;;;5031113;28;20404;-78
2021/07/04 13:17:43;;;;;;;;;;;18.50;99.90;;;;;;5032130;28;19925;-79
2021/07/04 13:20:13;;;;;;;;;;;18.60;99.90;;;;;;5025123;28;19947;-75
2021/07/04 13:22:41;;;;;;;;;;;19.00;99.90;;;;;;5029941;28;20299;-76
2021/07/04 13:25:14;;;;;;;;;;;19.00;99.90;;;;;;5031587;28;20024;-78
2021/07/04 13:27:45;;;;;;;;;;;19.10;99.90;;;;;;5046053;28;19925;-78
2021/07/04 13:30:13;;;;;;;;;;;19.20;99.90;;;;;;5031041;28;19979;-78
2021/07/04 13:32:54;;;;;;;;;;;19.30;99.90;;;;;;5031885;28;19929;-78
2021/07/04 13:35:26;;;;;;;;;;;19.50;99.90;;;;;;5045737;28;20016;-78
2021/07/04 13:38:03;;;;;;;;;;;19.50;99.90;;;;;;5030774;28;19951;-78
2021/07/04 13:40:31;;;;;;;;;;;19.70;99.90;;;;;;5031564;28;20003;-78
2021/07/04 13:42:58;;;;;;;;;;;19.60;99.90;;;;;;5029036;28;20323;-78
2021/07/04 13:45:25;;;;;;;;;;;19.70;99.90;;;;;;5028354;28;19937;-73
2021/07/04 13:47:52;;;;;;;;;;;19.80;99.90;;;;;;5027594;28;20284;-73
2021/07/04 13:50:20;;;;;;;;;;;20.00;99.90;;;;;;5023291;28;20400;-73
2021/07/04 13:52:46;;;;;;;;;;;20.20;99.90;;;;;;5021168;28;19925;-72
2021/07/04 13:55:13;;;;;;;;;;;20.50;99.90;;;;;;5029334;28;20274;-73
2021/07/04 13:57:40;;;;;;;;;;;20.50;99.90;;;;;;5027394;28;20007;-72
2021/07/04 14:00:08;;;;;;;;;;;20.70;99.90;;;;;;5029024;28;19932;-72
2021/07/04 14:02:36;;;;;;;;;;;20.80;99.90;;;;;;5029535;28;19929;-72
2021/07/04 14:05:04;;;;;;;;;;;20.80;99.90;;;;;;5030009;28;19932;-73
2021/07/04 14:07:31;;;;;;;;;;;21.10;99.90;;;;;;5031010;28;20342;-73
2021/07/04 14:09:57;;;;;;;;;;;21.30;99.90;;;;;;5024645;28;20383;-73
2021/07/04 14:12:24;;;;;;;;;;;21.60;99.90;;;;;;5043789;28;19998;-73
2021/07/04 14:14:51;;;;;;;;;;;21.90;99.90;;;;;;5045654;28;19978;-73
2021/07/04 14:17:18;;;;;;;;;;;22.10;99.90;;;;;;5029807;28;19983;-73
2021/07/04 14:19:49;;;;;;;;;;;21.80;99.90;;;;;;5042998;28;19925;-72
2021/07/04 14:22:16;;;;;;;;;;;21.80;99.90;;;;;;5029363;28;20532;-72
2021/07/04 14:24:43;;;;;;;;;;;22.00;99.90;;;;;;5030828;28;19965;-72
2021/07/04 14:27:09;;;;;;;;;;;22.10;99.90;;;;;;5042804;28;20395;-72